createdAt,value
2019-01-02T14:36:55.649Z,19.30
2019-01-02T14:38:00.564Z,19.30
2019-01-02T14:39:07.859Z,19.30
2019-01-02T14:40:13.013Z,19.30
2019-01-02T14:41:17.964Z,19.30
2019-01-02T14:42:22.906Z,19.30
2019-01-02T14:43:28.094Z,19.30
2019-01-02T14:44:33.220Z,19.30
2019-01-02T14:45:38.138Z,19.30
2019-01-02T14:46:43.485Z,19.30
2019-01-02T14:47:48.333Z,19.30
2019-01-02T14:48:53.333Z,19.30
2019-01-02T14:49:58.312Z,19.30
2019-01-02T14:51:05.892Z,19.30
2019-01-02T14:52:12.732Z,19.30
2019-01-02T14:53:17.860Z,19.30
2019-01-02T14:54:22.929Z,19.30
2019-01-02T14:55:28.095Z,19.40
2019-01-02T14:56:33.309Z,19.40
2019-01-02T14:57:38.165Z,19.40
2019-01-02T14:58:43.096Z,19.40
2019-01-02T14:59:48.009Z,19.40
2019-01-02T15:00:53.018Z,19.40
2019-01-02T15:01:58.035Z,19.40
2019-01-02T15:03:03.050Z,19.40
2019-01-02T15:04:07.978Z,19.40
2019-01-02T15:05:13.070Z,19.40
2019-01-02T15:06:17.932Z,19.40
2019-01-02T15:07:22.974Z,19.40
2019-01-02T15:08:27.971Z,19.40
2019-01-02T15:09:32.922Z,19.40
2019-01-02T15:10:37.846Z,19.40
2019-01-02T15:11:43.039Z,19.40
2019-01-02T15:12:47.968Z,19.40
2019-01-02T15:13:52.971Z,19.40
2019-01-02T15:14:58.021Z,19.50
2019-01-02T15:16:02.859Z,19.50
2019-01-02T15:17:08.022Z,19.50
2019-01-02T15:18:13.204Z,19.50
2019-01-02T15:19:20.484Z,19.50
2019-01-02T15:20:25.281Z,19.60
2019-01-02T15:21:30.375Z,19.60
2019-01-02T15:22:35.341Z,19.70
2019-01-02T15:23:40.533Z,19.70
2019-01-02T15:24:49.482Z,19.70
2019-01-02T15:25:52.399Z,19.70
2019-01-02T15:26:57.680Z,19.70
2019-01-02T15:28:02.735Z,19.70
2019-01-02T15:29:07.893Z,19.70
2019-01-02T15:30:14.004Z,19.70
2019-01-02T15:31:18.855Z,19.70
2019-01-02T15:32:23.797Z,19.70
2019-01-02T15:33:28.810Z,19.70
2019-01-02T15:34:33.851Z,19.70
2019-01-02T15:35:39.101Z,19.70
2019-01-02T15:36:44.138Z,19.70
2019-01-02T15:37:49.334Z,19.70
2019-01-02T15:38:54.181Z,19.80
2019-01-02T15:39:59.859Z,19.80
2019-01-02T15:41:05.012Z,19.70
2019-01-02T15:42:10.126Z,19.80
2019-01-02T15:43:15.049Z,19.80
2019-01-02T15:44:20.453Z,19.80
2019-01-02T15:45:25.604Z,19.80
2019-01-02T15:46:30.845Z,19.80
2019-01-02T15:47:35.969Z,19.80
2019-01-02T15:48:40.932Z,19.80
2019-01-02T15:49:46.091Z,19.80
2019-01-02T15:50:51.212Z,19.80
2019-01-02T15:51:56.501Z,19.80
2019-01-02T15:53:01.405Z,19.80
2019-01-02T15:54:06.259Z,19.80
2019-01-02T15:55:11.360Z,19.80
2019-01-02T15:56:16.270Z,19.80
2019-01-02T15:57:21.292Z,19.90
2019-01-02T15:58:26.293Z,19.80
2019-01-02T15:59:31.400Z,19.90
2019-01-02T16:00:36.495Z,19.90
2019-01-02T16:01:41.672Z,19.90
2019-01-02T16:02:46.603Z,19.90
2019-01-02T16:03:51.633Z,19.90
2019-01-02T16:04:56.280Z,19.90
2019-01-02T16:06:01.405Z,19.90
2019-01-02T16:07:06.528Z,19.90
2019-01-02T16:08:11.412Z,19.90
2019-01-02T16:09:16.724Z,19.90
2019-01-02T16:10:21.718Z,19.90
2019-01-02T16:11:26.718Z,19.90
2019-01-02T16:12:31.830Z,19.90
2019-01-02T16:13:37.380Z,19.90
2019-01-02T16:14:42.576Z,19.90
2019-01-02T16:15:47.730Z,19.90
2019-01-02T16:16:52.784Z,19.90
2019-01-02T16:17:57.853Z,19.90
2019-01-02T16:19:02.959Z,19.90
2019-01-02T16:20:10.370Z,19.90
2019-01-02T16:21:15.509Z,19.90
2019-01-02T16:22:20.566Z,19.90
2019-01-02T16:23:25.494Z,19.90
2019-01-02T16:24:30.604Z,20.20
2019-01-02T16:25:37.370Z,20.50
2019-01-02T16:26:42.214Z,20.60
2019-01-02T16:27:47.721Z,20.60
2019-01-02T16:28:53.017Z,20.60
2019-01-02T16:29:58.107Z,20.60
2019-01-02T16:31:02.810Z,20.50
2019-01-02T16:32:07.967Z,20.50
2019-01-02T16:33:13.132Z,20.50
2019-01-02T16:34:18.163Z,20.50
2019-01-02T16:35:23.336Z,20.50
2019-01-02T16:36:28.300Z,20.40
2019-01-02T16:37:33.535Z,20.40
2019-01-02T16:38:38.867Z,20.40
2019-01-02T16:39:43.788Z,20.30
2019-01-02T16:40:48.803Z,20.30
2019-01-02T16:41:53.716Z,20.30
2019-01-02T16:42:58.973Z,20.30
2019-01-02T16:44:04.142Z,20.30
2019-01-02T16:45:09.471Z,20.30
2019-01-02T16:46:14.846Z,20.30
2019-01-02T16:47:19.884Z,20.30
2019-01-02T16:48:27.328Z,20.20
2019-01-02T16:49:32.279Z,20.20
2019-01-02T16:50:37.486Z,20.20
2019-01-02T16:51:42.725Z,20.20
2019-01-02T16:52:47.813Z,20.20
2019-01-02T16:53:52.844Z,20.20
2019-01-02T16:54:58.573Z,20.20
2019-01-02T16:56:03.608Z,20.10
2019-01-02T16:57:08.807Z,20.10
2019-01-02T16:58:13.849Z,20.10
2019-01-02T16:59:18.811Z,20.10
2019-01-02T17:00:24.080Z,20.10
2019-01-02T17:01:29.284Z,20.10
2019-01-02T17:02:34.256Z,20.10
2019-01-02T17:03:39.334Z,20.00
2019-01-02T17:04:44.174Z,20.00
2019-01-02T17:05:49.243Z,20.00
2019-01-02T17:06:55.234Z,20.00
2019-01-02T17:08:00.640Z,20.00
2019-01-02T17:09:08.375Z,20.00
2019-01-02T17:10:13.752Z,20.00
2019-01-02T17:11:18.768Z,20.00
2019-01-02T17:12:23.705Z,20.00
2019-01-02T17:13:28.749Z,20.00
2019-01-02T17:14:34.043Z,19.90
2019-01-02T17:15:39.496Z,19.90
2019-01-02T17:16:44.633Z,19.90
2019-01-02T17:17:50.298Z,19.90
2019-01-02T17:18:55.510Z,19.90
2019-01-02T17:20:00.668Z,19.90
2019-01-02T17:21:05.871Z,19.90
2019-01-02T17:22:11.487Z,19.90
2019-01-02T17:23:16.338Z,19.90
2019-01-02T17:24:21.474Z,19.90
2019-01-02T17:25:26.789Z,19.90
2019-01-02T17:26:31.872Z,19.90
2019-01-02T17:27:36.993Z,19.90
2019-01-02T17:28:42.240Z,19.90
2019-01-02T17:29:47.761Z,19.90
2019-01-02T17:30:53.441Z,19.90
2019-01-02T17:31:58.859Z,19.90
2019-01-02T17:33:03.860Z,19.90
2019-01-02T17:34:08.872Z,19.90
2019-01-02T17:35:13.971Z,19.90
2019-01-02T17:36:19.089Z,19.90
2019-01-02T17:37:24.096Z,19.90
2019-01-02T17:38:29.091Z,19.90
2019-01-02T17:39:34.255Z,19.80
2019-01-02T17:40:39.463Z,19.80
2019-01-02T17:41:44.534Z,19.80
2019-01-02T17:42:49.466Z,19.80
2019-01-02T17:43:54.603Z,19.80
2019-01-02T17:44:59.648Z,19.80
2019-01-02T17:46:04.822Z,19.80
2019-01-02T17:47:09.996Z,19.80
2019-01-02T17:48:15.220Z,19.80
2019-01-02T17:49:20.808Z,19.80
2019-01-02T17:50:26.144Z,19.80
2019-01-02T17:51:31.535Z,19.80
2019-01-02T17:52:36.456Z,19.80
2019-01-02T17:53:41.449Z,19.70
2019-01-02T17:54:46.529Z,19.70
2019-01-02T17:55:51.497Z,19.70
2019-01-02T17:56:58.805Z,19.70
2019-01-02T17:58:04.126Z,19.70
2019-01-02T17:59:09.518Z,19.70
2019-01-02T18:00:14.521Z,19.70
2019-01-02T18:01:19.466Z,19.70
2019-01-02T18:02:24.538Z,19.70
2019-01-02T18:03:29.622Z,19.70
2019-01-02T18:04:34.673Z,19.70
2019-01-02T18:05:39.822Z,19.70
2019-01-02T18:06:44.825Z,19.70
2019-01-02T18:07:50.157Z,19.70
2019-01-02T18:08:55.226Z,19.70
2019-01-02T18:10:00.324Z,19.70
2019-01-02T18:11:06.761Z,19.70
2019-01-02T18:12:12.056Z,19.70
2019-01-02T18:13:17.307Z,19.70
2019-01-02T18:14:22.385Z,19.70
2019-01-02T18:15:27.433Z,19.80
2019-01-02T18:16:32.401Z,19.80
2019-01-02T18:17:37.405Z,19.80
2019-01-02T18:18:42.695Z,19.80
2019-01-02T18:19:47.713Z,19.80
2019-01-02T18:20:52.913Z,19.80
2019-01-02T18:21:57.609Z,19.80
2019-01-02T18:23:02.857Z,19.90
2019-01-02T18:24:07.987Z,20.00
2019-01-02T18:25:12.961Z,20.10
2019-01-02T18:26:17.852Z,20.10
2019-01-02T18:27:22.955Z,20.10
2019-01-02T18:28:28.002Z,20.10
2019-01-02T18:29:33.026Z,20.00
2019-01-02T18:30:38.238Z,20.00
2019-01-02T18:31:43.161Z,20.00
2019-01-02T18:32:48.227Z,20.00
2019-01-02T18:33:53.665Z,20.00
2019-01-02T18:34:58.465Z,20.00
2019-01-02T18:36:03.390Z,20.00
2019-01-02T18:37:08.438Z,20.00
2019-01-02T18:38:13.352Z,20.00
2019-01-02T18:39:18.112Z,20.00
2019-01-02T18:40:23.189Z,20.00
2019-01-02T18:41:28.209Z,20.00
2019-01-02T18:42:33.210Z,20.00
2019-01-02T18:43:38.172Z,20.00
2019-01-02T18:44:43.189Z,20.10
2019-01-02T18:45:48.201Z,20.20
2019-01-02T18:46:53.363Z,20.20
2019-01-02T18:47:58.364Z,20.20
2019-01-02T18:49:03.356Z,20.20
2019-01-02T18:50:10.531Z,20.20
2019-01-02T18:51:15.547Z,20.10
2019-01-02T18:52:20.512Z,20.20
2019-01-02T18:53:25.491Z,20.10
2019-01-02T18:54:30.836Z,20.10
2019-01-02T18:55:35.886Z,20.20
2019-01-02T18:56:40.595Z,20.30
2019-01-02T18:57:45.683Z,20.40
2019-01-02T18:58:52.675Z,20.50
2019-01-02T18:59:57.709Z,20.60
2019-01-02T19:01:04.859Z,20.70
2019-01-02T19:02:09.971Z,20.70
2019-01-02T19:03:14.989Z,20.70
2019-01-02T19:04:20.107Z,20.80
2019-01-02T19:05:25.172Z,20.80
2019-01-02T19:06:30.188Z,20.90
2019-01-02T19:07:35.139Z,21.00
2019-01-02T19:08:40.178Z,21.00
2019-01-02T19:09:45.259Z,21.10
2019-01-02T19:10:50.158Z,21.10
2019-01-02T19:11:55.230Z,21.10
2019-01-02T19:13:00.192Z,21.10
2019-01-02T19:14:05.088Z,21.10
2019-01-02T19:15:10.234Z,21.10
2019-01-02T19:16:21.307Z,21.10
2019-01-02T19:17:21.780Z,21.10
2019-01-02T19:18:26.837Z,21.10
2019-01-02T19:19:31.609Z,21.10
2019-01-02T19:20:36.468Z,21.10
2019-01-02T19:21:41.448Z,21.10
2019-01-02T19:22:46.529Z,21.10
2019-01-02T19:23:51.403Z,21.10
2019-01-02T19:24:56.522Z,21.10
2019-01-02T19:26:01.386Z,21.10
2019-01-02T19:27:06.325Z,21.10
2019-01-02T19:28:11.458Z,21.10
2019-01-02T19:29:16.311Z,21.00
2019-01-02T19:30:21.311Z,21.00
2019-01-02T19:31:26.316Z,21.10
2019-01-02T19:32:31.400Z,21.10
2019-01-02T19:33:36.247Z,21.10
2019-01-02T19:34:40.984Z,21.10
2019-01-02T19:35:46.259Z,21.10
2019-01-02T19:36:51.200Z,21.10
2019-01-02T19:37:56.243Z,21.10
2019-01-02T19:39:01.186Z,21.10
2019-01-02T19:40:06.275Z,21.00
2019-01-02T19:41:11.321Z,21.00
2019-01-02T19:42:16.240Z,21.00
2019-01-02T19:43:21.357Z,21.00
2019-01-02T19:44:26.266Z,21.00
2019-01-02T19:45:31.285Z,21.00
2019-01-02T19:46:36.186Z,21.00
2019-01-02T19:47:41.211Z,21.10
2019-01-02T19:48:46.148Z,21.10
2019-01-02T19:49:51.177Z,21.10
2019-01-02T19:50:56.154Z,21.10
2019-01-02T19:52:01.410Z,21.20
2019-01-02T19:53:06.400Z,21.20
2019-01-02T19:54:11.239Z,21.20
2019-01-02T19:55:16.412Z,21.20
2019-01-02T19:56:21.570Z,21.10
2019-01-02T19:57:26.583Z,21.10
2019-01-02T19:58:31.600Z,21.00
2019-01-02T19:59:36.567Z,21.00
2019-01-02T20:00:41.497Z,21.00
2019-01-02T20:01:46.651Z,21.10
2019-01-02T20:02:51.677Z,21.00
2019-01-02T20:03:56.557Z,21.00
2019-01-02T20:05:01.458Z,21.10
2019-01-02T20:06:06.453Z,21.10
2019-01-02T20:07:11.461Z,21.20
2019-01-02T20:08:16.305Z,21.20
2019-01-02T20:09:21.196Z,21.30
2019-01-02T20:10:26.242Z,21.30
2019-01-02T20:11:31.346Z,21.30
2019-01-02T20:12:36.205Z,21.30
2019-01-02T20:13:41.302Z,21.30
2019-01-02T20:14:46.307Z,21.40
2019-01-02T20:15:51.226Z,21.40
2019-01-02T20:16:56.180Z,21.40
2019-01-02T20:18:01.104Z,21.40
2019-01-02T20:19:06.257Z,21.40
2019-01-02T20:20:12.754Z,21.30
2019-01-02T20:21:17.713Z,21.30
2019-01-02T20:22:22.562Z,21.20
2019-01-02T20:23:27.397Z,21.20
2019-01-02T20:24:32.379Z,21.30
2019-01-02T20:25:37.383Z,21.30
2019-01-02T20:26:42.303Z,21.20
2019-01-02T20:27:47.435Z,21.20
2019-01-02T20:28:52.331Z,21.20
2019-01-02T20:29:57.266Z,21.20
2019-01-02T20:31:02.227Z,21.20
2019-01-02T20:32:07.454Z,21.20
2019-01-02T20:33:12.377Z,21.20
2019-01-02T20:34:17.362Z,21.30
2019-01-02T20:35:22.414Z,21.20
2019-01-02T20:36:27.418Z,21.30
2019-01-02T20:37:32.365Z,21.30
2019-01-02T20:38:37.396Z,21.40
2019-01-02T20:39:42.285Z,21.40
2019-01-02T20:40:47.363Z,21.50
2019-01-02T20:41:52.280Z,21.50
2019-01-02T20:42:57.083Z,21.50
2019-01-02T20:44:02.307Z,21.40
2019-01-02T20:45:07.449Z,21.30
2019-01-02T20:46:12.295Z,21.30
2019-01-02T20:47:17.068Z,21.30
2019-01-02T20:48:22.231Z,21.20
2019-01-02T20:49:27.251Z,21.10
2019-01-02T20:50:33.185Z,21.00
2019-01-02T20:51:38.278Z,21.00
2019-01-02T20:52:43.427Z,20.90
2019-01-02T20:53:48.336Z,20.80
2019-01-02T20:54:53.355Z,20.80
2019-01-02T20:55:59.105Z,20.70
2019-01-02T20:57:04.278Z,20.70
2019-01-02T20:58:09.232Z,20.70
2019-01-02T20:59:14.288Z,20.60
2019-01-02T21:00:19.385Z,20.60
2019-01-02T21:01:24.260Z,20.50
2019-01-02T21:02:29.297Z,20.50
2019-01-02T21:03:34.287Z,20.80
2019-01-02T21:04:39.423Z,20.80
2019-01-02T21:05:44.648Z,20.90
2019-01-02T21:06:49.972Z,20.90
2019-01-02T21:07:54.933Z,21.00
2019-01-02T21:08:59.908Z,21.00
2019-01-02T21:10:05.058Z,21.00
2019-01-02T21:11:10.079Z,21.10
2019-01-02T21:12:15.069Z,21.20
2019-01-02T21:13:20.216Z,21.30
2019-01-02T21:14:25.508Z,21.40
2019-01-02T21:15:30.330Z,21.50
2019-01-02T21:16:35.223Z,21.60
2019-01-02T21:17:40.145Z,21.60
2019-01-02T21:18:45.162Z,21.70
2019-01-02T21:19:50.177Z,21.60
2019-01-02T21:20:55.135Z,21.40
2019-01-02T21:22:00.080Z,21.30
2019-01-02T21:23:05.032Z,21.20
2019-01-02T21:24:10.063Z,21.10
2019-01-02T21:25:15.252Z,21.00
2019-01-02T21:27:17.466Z,21.00
2019-01-02T21:28:22.379Z,20.90
2019-01-02T21:29:27.389Z,20.80
2019-01-02T21:30:32.347Z,20.70
2019-01-02T21:31:37.428Z,20.50
2019-01-02T21:32:42.671Z,20.50
2019-01-02T21:33:47.676Z,20.40
2019-01-02T21:34:52.679Z,20.40
2019-01-02T21:35:59.764Z,20.40
2019-01-02T21:37:04.630Z,20.30
2019-01-02T21:38:09.584Z,20.30
2019-01-02T21:39:14.539Z,20.30
2019-01-02T21:40:19.469Z,20.30
2019-01-02T21:41:24.401Z,20.30
2019-01-02T21:42:29.474Z,20.30
2019-01-02T21:43:34.275Z,20.30
2019-01-02T21:44:39.369Z,20.30
2019-01-02T21:45:44.385Z,20.30
2019-01-02T21:46:49.424Z,20.30
2019-01-02T21:47:54.583Z,20.30
2019-01-02T21:48:59.562Z,20.30
2019-01-02T21:50:04.744Z,20.30
2019-01-02T21:51:10.163Z,20.20
2019-01-02T21:52:15.386Z,20.20
2019-01-02T21:53:20.452Z,20.20
2019-01-02T21:54:25.473Z,20.20
2019-01-02T21:55:30.904Z,20.20
2019-01-02T21:56:35.817Z,20.30
2019-01-02T21:57:40.917Z,20.20
2019-01-02T21:58:45.939Z,20.30
2019-01-02T21:59:51.096Z,20.30
2019-01-02T22:00:56.338Z,20.30
2019-01-02T22:02:01.413Z,20.30
2019-01-02T22:03:06.429Z,20.30
2019-01-02T22:04:11.284Z,20.20
2019-01-02T22:05:16.499Z,20.20
2019-01-02T22:06:21.828Z,20.20
2019-01-02T22:07:26.938Z,20.20
2019-01-02T22:08:32.180Z,20.20
2019-01-02T22:09:37.337Z,20.20
2019-01-02T22:10:42.384Z,20.20
2019-01-02T22:11:47.452Z,20.10
2019-01-02T22:12:52.537Z,20.20
2019-01-02T22:13:57.937Z,20.10
2019-01-02T22:15:02.907Z,20.10
2019-01-02T22:16:08.045Z,20.20
2019-01-02T22:17:13.354Z,20.10
2019-01-02T22:18:18.396Z,20.20
2019-01-02T22:19:23.530Z,20.10
2019-01-02T22:20:28.735Z,20.20
2019-01-02T22:21:37.038Z,20.20
2019-01-02T22:22:42.121Z,20.20
2019-01-02T22:23:47.095Z,20.20
2019-01-02T22:24:52.402Z,20.20
2019-01-02T22:25:57.420Z,20.20
